Time;durP1;ratioP1;P1;durP2;ratioP2;P2;SDS_P1;SDS_P2;PMS_P1;PMS_P2;Temp;Humidity;BMP_temperature;BMP_pressure;BME280_temperature;BME280_humidity;BME280_pressure;Samples;Min_cycle;Max_cycle;Signal;HPM_P1;HPM_P2
2021/11/24 00:01:53;;;;;;;0.52;0.30;;;;;;;;;;4164192;28;20188;-40
2021/11/24 00:03:54;;;;;;;0.90;0.13;;;;;;;;;;4164873;28;20053;-41
2021/11/24 00:05:55;;;;;;;0.32;0.20;;;;;;;;;;4164604;28;20616;-40
2021/11/24 00:07:57;;;;;;;0.17;0.15;;;;;;;;;;4164152;28;20077;-44
2021/11/24 00:09:58;;;;;;;0.22;0.10;;;;;;;;;;4147217;28;20450;-41
2021/11/24 00:11:59;;;;;;;0.22;0.20;;;;;;;;;;4147146;28;20062;-42
2021/11/24 00:14:00;;;;;;;0.30;0.10;;;;;;;;;;4164476;28;20072;-42
2021/11/24 00:16:01;;;;;;;0.50;0.20;;;;;;;;;;4164775;28;20068;-42
2021/11/24 00:18:02;;;;;;;0.75;0.20;;;;;;;;;;4147213;28;20058;-42
2021/11/24 00:20:05;;;;;;;0.10;0.10;;;;;;;;;;4164558;28;20057;-41
2021/11/24 00:22:07;;;;;;;0.20;0.20;;;;;;;;;;4164211;28;20534;-43
2021/11/24 00:24:08;;;;;;;0.43;0.20;;;;;;;;;;4164042;28;20111;-40
2021/11/24 00:26:09;;;;;;;0.55;0.10;;;;;;;;;;4164671;28;20100;-41
2021/11/24 00:28:10;;;;;;;0.50;0.20;;;;;;;;;;4164371;28;20057;-40
2021/11/24 00:30:11;;;;;;;0.10;0.10;;;;;;;;;;4164450;28;20058;-42
2021/11/24 00:32:12;;;;;;;0.20;0.10;;;;;;;;;;4164403;28;20108;-41
2021/11/24 00:34:13;;;;;;;0.40;0.25;;;;;;;;;;4130511;28;20516;-41
2021/11/24 00:36:15;;;;;;;0.20;0.15;;;;;;;;;;4164365;28;20501;-41
2021/11/24 00:38:16;;;;;;;0.52;0.10;;;;;;;;;;4164086;28;20049;-41
2021/11/24 00:40:17;;;;;;;0.00;0.00;;;;;;;;;;4164312;28;20088;-41
2021/11/24 00:42:18;;;;;;;0.38;0.10;;;;;;;;;;4164599;28;20058;-41
2021/11/24 00:44:19;;;;;;;0.15;0.10;;;;;;;;;;4146673;28;20116;-41
2021/11/24 00:46:21;;;;;;;1.50;0.30;;;;;;;;;;4164248;28;20053;-40
2021/11/24 00:48:22;;;;;;;0.70;0.05;;;;;;;;;;4130679;28;20062;-42
2021/11/24 00:50:24;;;;;;;0.38;0.13;;;;;;;;;;4164412;28;20076;-41
2021/11/24 00:52:28;;;;;;;0.22;0.10;;;;;;;;;;4164391;28;20108;-41
2021/11/24 00:54:29;;;;;;;0.50;0.20;;;;;;;;;;4163993;28;20115;-41
2021/11/24 00:56:31;;;;;;;0.28;0.20;;;;;;;;;;4146740;28;20046;-40
2021/11/24 00:58:33;;;;;;;0.30;0.10;;;;;;;;;;4146793;28;20053;-41
2021/11/24 01:00:34;;;;;;;0.10;0.10;;;;;;;;;;4147058;28;20058;-41
2021/11/24 01:02:35;;;;;;;0.40;0.10;;;;;;;;;;4164261;28;20066;-40
2021/11/24 01:04:36;;;;;;;0.15;0.15;;;;;;;;;;4164195;28;20061;-41
2021/11/24 01:06:38;;;;;;;0.20;0.20;;;;;;;;;;4164268;28;20057;-42
2021/11/24 01:08:39;;;;;;;0.15;0.15;;;;;;;;;;4163635;28;20053;-40
2021/11/24 01:10:40;;;;;;;0.10;0.10;;;;;;;;;;4164405;28;20053;-41
2021/11/24 01:12:42;;;;;;;0.10;0.10;;;;;;;;;;4163944;28;20119;-43
2021/11/24 01:14:43;;;;;;;0.65;0.20;;;;;;;;;;4167431;28;20103;-40
2021/11/24 01:16:45;;;;;;;0.28;0.17;;;;;;;;;;4149552;28;20058;-41
2021/11/24 01:18:46;;;;;;;0.80;0.10;;;;;;;;;;4167216;28;20457;-42
2021/11/24 01:20:47;;;;;;;0.35;0.20;;;;;;;;;;4149660;28;20066;-45
2021/11/24 01:22:50;;;;;;;0.30;0.10;;;;;;;;;;4166622;28;20111;-42
2021/11/24 01:24:51;;;;;;;0.55;0.17;;;;;;;;;;4167519;28;20057;-42
2021/11/24 01:26:52;;;;;;;0.20;0.10;;;;;;;;;;4167300;28;20045;-40
2021/11/24 01:28:53;;;;;;;0.22;0.13;;;;;;;;;;4167068;28;20434;-40
2021/11/24 01:30:55;;;;;;;0.10;0.10;;;;;;;;;;4149488;28;20449;-43
2021/11/24 01:32:57;;;;;;;0.10;0.10;;;;;;;;;;4166967;28;20456;-43
2021/11/24 01:34:58;;;;;;;0.25;0.10;;;;;;;;;;4166989;28;20053;-41
2021/11/24 01:36:59;;;;;;;0.30;0.13;;;;;;;;;;4149563;28;20058;-42
2021/11/24 01:39:00;;;;;;;0.38;0.20;;;;;;;;;;4165514;28;20057;-41
2021/11/24 01:41:02;;;;;;;0.10;0.10;;;;;;;;;;4166932;28;20053;-40
2021/11/24 01:43:05;;;;;;;0.32;0.10;;;;;;;;;;4166474;28;20060;-43
2021/11/24 01:45:08;;;;;;;0.20;0.20;;;;;;;;;;4167108;28;20501;-42
2021/11/24 01:47:09;;;;;;;0.08;0.08;;;;;;;;;;4166786;28;20054;-42
2021/11/24 01:49:10;;;;;;;0.32;0.20;;;;;;;;;;4166714;28;20112;-41
2021/11/24 01:51:11;;;;;;;0.17;0.10;;;;;;;;;;4166824;28;20533;-40
2021/11/24 01:53:13;;;;;;;0.22;0.20;;;;;;;;;;4166304;28;20107;-41
2021/11/24 01:55:15;;;;;;;0.20;0.10;;;;;;;;;;4167039;28;20069;-41
2021/11/24 01:57:17;;;;;;;1.17;0.35;;;;;;;;;;4166699;28;20049;-43
2021/11/24 01:59:18;;;;;;;0.15;0.10;;;;;;;;;;4166605;28;20099;-40
2021/11/24 02:01:19;;;;;;;0.10;0.10;;;;;;;;;;4166728;28;20076;-42
2021/11/24 02:03:21;;;;;;;0.22;0.10;;;;;;;;;;4166672;28;20060;-41
2021/11/24 02:05:22;;;;;;;0.15;0.10;;;;;;;;;;4166710;28;20382;-41
2021/11/24 02:07:23;;;;;;;0.10;0.10;;;;;;;;;;4149257;28;20061;-41
2021/11/24 02:09:24;;;;;;;0.15;0.15;;;;;;;;;;4166176;28;20054;-42
2021/11/24 02:11:26;;;;;;;0.47;0.15;;;;;;;;;;4166811;28;20057;-40
2021/11/24 02:13:27;;;;;;;0.47;0.30;;;;;;;;;;4166573;28;20065;-41
2021/11/24 02:15:29;;;;;;;0.52;0.10;;;;;;;;;;4185460;28;20052;-45
2021/11/24 02:17:30;;;;;;;1.20;0.20;;;;;;;;;;4199352;28;20064;-41
2021/11/24 02:19:33;;;;;;;0.15;0.10;;;;;;;;;;4177325;28;20407;-40
2021/11/24 02:21:35;;;;;;;0.10;0.10;;;;;;;;;;4182602;28;20382;-42
2021/11/24 02:23:36;;;;;;;0.15;0.15;;;;;;;;;;4182558;28;20057;-41
2021/11/24 02:25:39;;;;;;;0.17;0.08;;;;;;;;;;4181733;28;20064;-42
2021/11/24 02:27:41;;;;;;;0.10;0.10;;;;;;;;;;4182938;28;20123;-44
2021/11/24 02:29:44;;;;;;;0.20;0.13;;;;;;;;;;4182679;28;20048;-41
2021/11/24 02:31:50;;;;;;;0.40;0.10;;;;;;;;;;4165210;28;20107;-41
2021/11/24 02:33:52;;;;;;;0.10;0.10;;;;;;;;;;4182615;28;20053;-42
2021/11/24 02:35:53;;;;;;;0.68;0.30;;;;;;;;;;4182566;28;20107;-41
2021/11/24 02:37:55;;;;;;;0.10;0.10;;;;;;;;;;4164364;28;20092;-43
2021/11/24 02:39:56;;;;;;;0.10;0.00;;;;;;;;;;4182481;28;20057;-42
2021/11/24 02:41:57;;;;;;;0.25;0.20;;;;;;;;;;4182727;28;20061;-42
2021/11/24 02:44:23;;;;;;;0.40;0.10;;;;;;;;;;4164663;28;20648;-41
2021/11/24 02:46:25;;;;;;;0.20;0.20;;;;;;;;;;4182276;28;20531;-40
2021/11/24 02:48:26;;;;;;;0.20;0.20;;;;;;;;;;4182284;28;20056;-40
2021/11/24 02:50:28;;;;;;;0.10;0.10;;;;;;;;;;4164911;28;20115;-44
2021/11/24 02:52:30;;;;;;;0.20;0.10;;;;;;;;;;4164640;28;20057;-41
2021/11/24 02:54:32;;;;;;;0.17;0.10;;;;;;;;;;4181947;28;20107;-45
2021/11/24 02:56:33;;;;;;;0.30;0.25;;;;;;;;;;4182197;28;20057;-42
2021/11/24 02:58:34;;;;;;;0.30;0.10;;;;;;;;;;4182378;28;20114;-40
2021/11/24 03:00:35;;;;;;;0.30;0.20;;;;;;;;;;4182333;28;20489;-41
2021/11/24 03:02:36;;;;;;;0.10;0.10;;;;;;;;;;4182212;28;20106;-44
2021/11/24 03:04:37;;;;;;;0.10;0.10;;;;;;;;;;4182259;28;20049;-40
2021/11/24 03:06:38;;;;;;;0.30;0.20;;;;;;;;;;4182388;28;20102;-43
2021/11/24 03:08:39;;;;;;;0.10;0.10;;;;;;;;;;4181522;28;20056;-40
2021/11/24 03:10:41;;;;;;;0.32;0.20;;;;;;;;;;4148263;28;20053;-41
2021/11/24 03:12:42;;;;;;;0.45;0.10;;;;;;;;;;4181935;28;20057;-41
2021/11/24 03:14:43;;;;;;;0.10;0.10;;;;;;;;;;4182084;28;20057;-43
2021/11/24 03:16:44;;;;;;;0.10;0.10;;;;;;;;;;4182101;28;20107;-41
2021/11/24 03:18:45;;;;;;;0.10;0.00;;;;;;;;;;4181881;28;20500;-42
2021/11/24 03:20:46;;;;;;;0.20;0.20;;;;;;;;;;4180664;28;20488;-42
2021/11/24 03:22:48;;;;;;;0.10;0.10;;;;;;;;;;4181209;28;20057;-41
2021/11/24 03:24:56;;;;;;;0.43;0.10;;;;;;;;;;4181902;28;20388;-40
2021/11/24 03:26:57;;;;;;;0.25;0.20;;;;;;;;;;4164168;28;20108;-42
2021/11/24 03:28:59;;;;;;;0.10;0.10;;;;;;;;;;4164275;28;20083;-42
2021/11/24 03:31:00;;;;;;;0.00;0.00;;;;;;;;;;4181675;28;20057;-42
2021/11/24 03:33:03;;;;;;;0.20;0.10;;;;;;;;;;4181575;28;20507;-42
2021/11/24 03:35:05;;;;;;;0.82;0.10;;;;;;;;;;4181790;28;20187;-42
2021/11/24 03:37:06;;;;;;;0.00;0.00;;;;;;;;;;4181468;28;20493;-43
2021/11/24 03:39:07;;;;;;;0.30;0.20;;;;;;;;;;4181303;28;20061;-40
2021/11/24 03:41:09;;;;;;;0.20;0.17;;;;;;;;;;4181626;28;20064;-42
2021/11/24 03:43:10;;;;;;;0.10;0.10;;;;;;;;;;4147672;28;20058;-42
2021/11/24 03:45:12;;;;;;;0.10;0.10;;;;;;;;;;4181334;28;20049;-41
2021/11/24 03:47:13;;;;;;;0.10;0.10;;;;;;;;;;4163663;28;20096;-42
2021/11/24 03:49:15;;;;;;;0.00;0.00;;;;;;;;;;4163673;28;20061;-42
2021/11/24 03:51:16;;;;;;;0.38;0.10;;;;;;;;;;4181733;28;20060;-42
2021/11/24 03:53:18;;;;;;;0.10;0.10;;;;;;;;;;4180741;28;20492;-42
2021/11/24 03:55:19;;;;;;;0.20;0.17;;;;;;;;;;4181353;28;20053;-41
2021/11/24 03:57:20;;;;;;;0.13;0.10;;;;;;;;;;4181541;28;20060;-41
2021/11/24 03:59:22;;;;;;;0.30;0.20;;;;;;;;;;4181203;28;20048;-40
2021/11/24 04:01:23;;;;;;;0.10;0.10;;;;;;;;;;4181579;28;20061;-41
2021/11/24 04:03:24;;;;;;;0.10;0.10;;;;;;;;;;4181171;28;20110;-40
2021/11/24 04:05:26;;;;;;;0.20;0.05;;;;;;;;;;4163831;28;20049;-41
2021/11/24 04:07:27;;;;;;;0.10;0.10;;;;;;;;;;4181099;28;20057;-41
2021/11/24 04:09:28;;;;;;;0.68;0.10;;;;;;;;;;4180731;28;20057;-43
2021/11/24 04:11:29;;;;;;;0.05;0.05;;;;;;;;;;4179989;28;20053;-41
2021/11/24 04:13:31;;;;;;;0.00;0.00;;;;;;;;;;4180970;28;20060;-43
2021/11/24 04:15:32;;;;;;;0.38;0.10;;;;;;;;;;4181420;28;20057;-43
2021/11/24 04:17:33;;;;;;;0.10;0.10;;;;;;;;;;4180909;28;20083;-42
2021/11/24 04:19:34;;;;;;;0.20;0.10;;;;;;;;;;4181012;28;20063;-41
2021/11/24 04:21:36;;;;;;;0.20;0.10;;;;;;;;;;4172195;28;20061;-42
2021/11/24 04:23:37;;;;;;;0.10;0.10;;;;;;;;;;4197041;28;20060;-43
2021/11/24 04:25:38;;;;;;;0.03;0.00;;;;;;;;;;4177732;28;20053;-41
2021/11/24 04:27:39;;;;;;;0.10;0.10;;;;;;;;;;4163194;28;20053;-40
2021/11/24 04:29:41;;;;;;;0.22;0.10;;;;;;;;;;4174756;28;20068;-40
2021/11/24 04:31:42;;;;;;;0.20;0.20;;;;;;;;;;4179246;28;20060;-41
2021/11/24 04:33:43;;;;;;;0.10;0.00;;;;;;;;;;4179097;28;20386;-42
2021/11/24 04:35:44;;;;;;;0.20;0.10;;;;;;;;;;4162013;28;20057;-44
2021/11/24 04:37:47;;;;;;;0.40;0.20;;;;;;;;;;4179801;28;20106;-41
2021/11/24 04:39:48;;;;;;;0.10;0.05;;;;;;;;;;4180279;28;20108;-42
2021/11/24 04:41:49;;;;;;;0.30;0.10;;;;;;;;;;4180528;28;20049;-40
2021/11/24 04:43:50;;;;;;;0.10;0.10;;;;;;;;;;4180323;28;20049;-41
2021/11/24 04:45:51;;;;;;;0.28;0.20;;;;;;;;;;4180857;28;20107;-40
2021/11/24 04:47:53;;;;;;;0.10;0.10;;;;;;;;;;4180264;28;20198;-42
2021/11/24 04:49:54;;;;;;;0.25;0.10;;;;;;;;;;4179944;28;20070;-42
2021/11/24 04:51:55;;;;;;;0.10;0.10;;;;;;;;;;4181080;28;20053;-41
2021/11/24 04:53:57;;;;;;;0.10;0.10;;;;;;;;;;4179939;28;20061;-44
2021/11/24 04:55:58;;;;;;;0.10;0.10;;;;;;;;;;4179844;28;20053;-44
2021/11/24 04:58:01;;;;;;;0.40;0.20;;;;;;;;;;4180250;28;20056;-42
2021/11/24 05:00:06;;;;;;;0.10;0.10;;;;;;;;;;4180222;28;20543;-43
2021/11/24 05:02:07;;;;;;;0.17;0.10;;;;;;;;;;4180928;28;20103;-41
2021/11/24 05:04:09;;;;;;;0.10;0.10;;;;;;;;;;4180594;28;20061;-42
2021/11/24 05:06:11;;;;;;;0.13;0.10;;;;;;;;;;4180796;28;20053;-47
2021/11/24 05:08:12;;;;;;;0.20;0.17;;;;;;;;;;4180169;28;20099;-45
2021/11/24 05:10:14;;;;;;;0.13;0.10;;;;;;;;;;4180581;28;20489;-43
2021/11/24 05:12:15;;;;;;;0.10;0.10;;;;;;;;;;4180609;28;20071;-41
2021/11/24 05:14:19;;;;;;;0.15;0.10;;;;;;;;;;4180207;28;20453;-42
2021/11/24 05:16:22;;;;;;;0.10;0.10;;;;;;;;;;4180632;28;20049;-42
2021/11/24 05:18:31;;;;;;;0.20;0.10;;;;;;;;;;4163002;28;20813;-41
2021/11/24 05:20:34;;;;;;;0.10;0.10;;;;;;;;;;4180612;28;20061;-41
2021/11/24 05:22:35;;;;;;;0.20;0.20;;;;;;;;;;4180202;28;20049;-42
2021/11/24 05:24:36;;;;;;;0.10;0.10;;;;;;;;;;4180422;28;20061;-40
2021/11/24 05:26:37;;;;;;;0.10;0.10;;;;;;;;;;4180609;28;20067;-41
2021/11/24 05:28:39;;;;;;;0.10;0.10;;;;;;;;;;4180307;28;20477;-41
2021/11/24 05:30:40;;;;;;;0.13;0.10;;;;;;;;;;4180583;28;20106;-41
2021/11/24 05:32:41;;;;;;;0.38;0.20;;;;;;;;;;4180033;28;20134;-42
2021/11/24 05:34:42;;;;;;;0.10;0.10;;;;;;;;;;4180553;28;20061;-41
2021/11/24 05:36:43;;;;;;;0.30;0.10;;;;;;;;;;4180365;28;20060;-41
2021/11/24 05:38:46;;;;;;;0.13;0.10;;;;;;;;;;4179804;28;20102;-41
2021/11/24 05:40:47;;;;;;;0.20;0.10;;;;;;;;;;4180189;28;20065;-41
2021/11/24 05:42:49;;;;;;;0.10;0.10;;;;;;;;;;4180096;28;20448;-41
2021/11/24 05:45:00;;;;;;;0.20;0.10;;;;;;;;;;4162553;28;20057;-42
2021/11/24 05:47:08;;;;;;;0.00;0.00;;;;;;;;;;4180492;28;20053;-40
2021/11/24 05:49:09;;;;;;;0.05;0.03;;;;;;;;;;4162537;28;20057;-41
2021/11/24 05:51:12;;;;;;;0.50;0.22;;;;;;;;;;4180464;28;20060;-43
2021/11/24 05:53:14;;;;;;;0.93;0.13;;;;;;;;;;4145911;28;20096;-41
2021/11/24 05:55:16;;;;;;;0.10;0.10;;;;;;;;;;4180142;28;20087;-41
2021/11/24 05:57:17;;;;;;;0.20;0.20;;;;;;;;;;4179849;28;20103;-43
2021/11/24 05:59:18;;;;;;;0.25;0.20;;;;;;;;;;4162385;28;20058;-41
2021/11/24 06:01:20;;;;;;;0.22;0.10;;;;;;;;;;4182242;28;20515;-40
2021/11/24 06:03:21;;;;;;;0.13;0.10;;;;;;;;;;4183465;28;20105;-41
2021/11/24 06:05:22;;;;;;;1.45;0.20;;;;;;;;;;4166514;28;20058;-43
2021/11/24 06:07:23;;;;;;;0.28;0.10;;;;;;;;;;4148903;28;20065;-41
2021/11/24 06:09:25;;;;;;;0.73;0.17;;;;;;;;;;4165987;28;20382;-40
2021/11/24 06:11:26;;;;;;;0.25;0.10;;;;;;;;;;4166569;28;20102;-41
2021/11/24 06:13:27;;;;;;;0.10;0.10;;;;;;;;;;4166328;28;20087;-41
2021/11/24 06:15:29;;;;;;;0.32;0.10;;;;;;;;;;4166292;28;20107;-41
2021/11/24 06:17:31;;;;;;;0.47;0.28;;;;;;;;;;4166391;28;20053;-40
2021/11/24 06:19:32;;;;;;;0.10;0.10;;;;;;;;;;4166376;28;20452;-41
2021/11/24 06:21:33;;;;;;;0.20;0.08;;;;;;;;;;4161576;28;20132;-41
2021/11/24 06:23:39;;;;;;;0.10;0.10;;;;;;;;;;4149138;28;20113;-42
2021/11/24 06:25:40;;;;;;;0.28;0.20;;;;;;;;;;4149662;28;20120;-42
2021/11/24 06:27:42;;;;;;;0.20;0.10;;;;;;;;;;4149678;28;20199;-40
2021/11/24 06:29:43;;;;;;;0.30;0.10;;;;;;;;;;4149912;28;20112;-40
2021/11/24 06:31:44;;;;;;;0.65;0.10;;;;;;;;;;4132199;28;20093;-40
2021/11/24 06:33:45;;;;;;;0.50;0.15;;;;;;;;;;4149798;28;20057;-39
2021/11/24 06:35:46;;;;;;;0.30;0.20;;;;;;;;;;4132210;28;20058;-41
2021/11/24 06:37:48;;;;;;;0.63;0.20;;;;;;;;;;4149197;28;20100;-42
2021/11/24 06:39:49;;;;;;;0.20;0.10;;;;;;;;;;4154619;28;20049;-39
2021/11/24 06:41:50;;;;;;;0.10;0.10;;;;;;;;;;4155874;28;20065;-45
2021/11/24 06:43:52;;;;;;;0.20;0.17;;;;;;;;;;4159022;28;20053;-39
2021/11/24 06:45:53;;;;;;;0.45;0.17;;;;;;;;;;4162264;28;20108;-41
2021/11/24 06:47:54;;;;;;;1.42;0.30;;;;;;;;;;4162993;28;20099;-39
2021/11/24 06:49:55;;;;;;;0.25;0.10;;;;;;;;;;4154362;28;20058;-39
2021/11/24 06:51:56;;;;;;;0.20;0.10;;;;;;;;;;4152136;28;20062;-43
2021/11/24 06:53:59;;;;;;;0.10;0.10;;;;;;;;;;4157140;28;20138;-41
2021/11/24 06:56:00;;;;;;;0.30;0.20;;;;;;;;;;4167683;28;20111;-40
2021/11/24 06:58:01;;;;;;;0.88;0.22;;;;;;;;;;4154646;28;20624;-42
2021/11/24 07:00:07;;;;;;;0.28;0.20;;;;;;;;;;4157531;28;20054;-40
2021/11/24 07:02:08;;;;;;;0.38;0.20;;;;;;;;;;4153795;28;20060;-41
2021/11/24 07:04:10;;;;;;;1.33;0.30;;;;;;;;;;4150852;28;20096;-41
2021/11/24 07:06:11;;;;;;;0.95;0.73;;;;;;;;;;4155813;28;20563;-40
2021/11/24 07:08:12;;;;;;;0.63;0.35;;;;;;;;;;4139874;28;20058;-40
2021/11/24 07:10:13;;;;;;;0.30;0.20;;;;;;;;;;4150291;28;20060;-40
2021/11/24 07:12:15;;;;;;;0.93;0.13;;;;;;;;;;4145613;28;20057;-41
2021/11/24 07:14:16;;;;;;;0.30;0.20;;;;;;;;;;4159089;28;20064;-40
2021/11/24 07:16:17;;;;;;;0.10;0.10;;;;;;;;;;4156735;28;20547;-41
2021/11/24 07:18:18;;;;;;;0.55;0.20;;;;;;;;;;4154341;28;20064;-39
2021/11/24 07:20:19;;;;;;;0.38;0.10;;;;;;;;;;4152379;28;20111;-41
2021/11/24 07:22:21;;;;;;;1.25;0.30;;;;;;;;;;4163245;28;20099;-39
2021/11/24 07:24:22;;;;;;;0.60;0.25;;;;;;;;;;4177331;28;20053;-40
2021/11/24 07:26:23;;;;;;;1.00;0.30;;;;;;;;;;4178132;28;20052;-40
2021/11/24 07:28:25;;;;;;;2.08;0.30;;;;;;;;;;4173240;28;20049;-45
2021/11/24 07:30:26;;;;;;;1.35;0.28;;;;;;;;;;4169289;28;20060;-42
2021/11/24 07:32:28;;;;;;;0.80;0.30;;;;;;;;;;4158845;28;20056;-45
2021/11/24 07:34:30;;;;;;;3.40;0.30;;;;;;;;;;4170706;28;20473;-43
2021/11/24 07:36:31;;;;;;;6.93;0.50;;;;;;;;;;4173346;28;20496;-42
2021/11/24 07:38:33;;;;;;;1.60;0.30;;;;;;;;;;4176081;28;20134;-42
2021/11/24 07:40:34;;;;;;;1.63;0.40;;;;;;;;;;4168646;28;20063;-42
2021/11/24 07:42:36;;;;;;;1.05;0.50;;;;;;;;;;4171376;28;20381;-45
2021/11/24 07:44:37;;;;;;;0.40;0.15;;;;;;;;;;4166041;28;20128;-43
2021/11/24 07:46:38;;;;;;;1.48;0.40;;;;;;;;;;4173297;28;20155;-45
2021/11/24 07:48:39;;;;;;;0.63;0.30;;;;;;;;;;4168873;28;20523;-45
2021/11/24 07:50:40;;;;;;;0.65;0.30;;;;;;;;;;4171445;28;20107;-43
2021/11/24 07:52:42;;;;;;;1.50;0.20;;;;;;;;;;4154855;28;21731;-42
2021/11/24 07:54:43;;;;;;;0.57;0.30;;;;;;;;;;4162722;28;20041;-40
2021/11/24 07:56:45;;;;;;;1.13;0.35;;;;;;;;;;4156178;28;20075;-42
2021/11/24 07:58:46;;;;;;;2.05;0.30;;;;;;;;;;4172397;28;20068;-39
2021/11/24 08:00:47;;;;;;;0.40;0.22;;;;;;;;;;4160404;28;20153;-43
2021/11/24 08:02:48;;;;;;;1.88;0.30;;;;;;;;;;4157121;28;20056;-43
2021/11/24 08:04:50;;;;;;;0.57;0.20;;;;;;;;;;4159550;28;20131;-38
2021/11/24 08:06:52;;;;;;;0.95;0.30;;;;;;;;;;4167734;28;20450;-40
2021/11/24 08:08:53;;;;;;;2.63;0.30;;;;;;;;;;4167750;28;20416;-43
2021/11/24 08:10:54;;;;;;;2.75;0.40;;;;;;;;;;4153495;28;20053;-41
2021/11/24 08:12:56;;;;;;;2.38;0.40;;;;;;;;;;4162039;28;20061;-41
2021/11/24 08:14:57;;;;;;;1.50;0.30;;;;;;;;;;4168499;28;20548;-41
2021/11/24 08:16:58;;;;;;;0.82;0.28;;;;;;;;;;4166598;28;20050;-47
2021/11/24 08:18:59;;;;;;;0.70;0.30;;;;;;;;;;4168738;28;20062;-42
2021/11/24 08:21:00;;;;;;;0.80;0.30;;;;;;;;;;4163844;28;21897;-46
2021/11/24 08:23:02;;;;;;;0.50;0.20;;;;;;;;;;4152452;28;20046;-42
2021/11/24 08:25:03;;;;;;;2.13;0.30;;;;;;;;;;4143829;28;20122;-41
2021/11/24 08:27:05;;;;;;;2.53;0.40;;;;;;;;;;4149113;28;20049;-39
2021/11/24 08:29:08;;;;;;;0.57;0.40;;;;;;;;;;4148413;28;20061;-41
2021/11/24 08:31:09;;;;;;;1.38;0.30;;;;;;;;;;4147076;28;20108;-38
2021/11/24 08:33:10;;;;;;;1.20;0.50;;;;;;;;;;4151238;28;20404;-42
2021/11/24 08:35:12;;;;;;;1.42;0.47;;;;;;;;;;4151762;28;20057;-41
2021/11/24 08:37:14;;;;;;;0.73;0.32;;;;;;;;;;4151917;28;20058;-39
2021/11/24 08:39:15;;;;;;;2.17;0.30;;;;;;;;;;4148457;28;20053;-40
2021/11/24 08:41:16;;;;;;;1.10;0.52;;;;;;;;;;4147373;28;20484;-43
2021/11/24 08:43:20;;;;;;;1.50;0.55;;;;;;;;;;4151692;28;20442;-39
2021/11/24 08:45:23;;;;;;;2.47;0.47;;;;;;;;;;4150204;28;20189;-39
2021/11/24 08:47:24;;;;;;;0.55;0.30;;;;;;;;;;4142633;28;20057;-45
2021/11/24 08:49:25;;;;;;;0.95;0.40;;;;;;;;;;4148611;28;20060;-45
2021/11/24 08:51:27;;;;;;;1.45;0.40;;;;;;;;;;4149294;28;20106;-44
2021/11/24 08:53:28;;;;;;;1.95;0.40;;;;;;;;;;4149384;28;20066;-42
2021/11/24 08:55:30;;;;;;;2.88;0.40;;;;;;;;;;4149874;28;20054;-47
2021/11/24 08:57:31;;;;;;;0.63;0.30;;;;;;;;;;4147413;28;20583;-43
2021/11/24 08:59:32;;;;;;;2.92;0.47;;;;;;;;;;4139892;28;20089;-40
2021/11/24 09:01:34;;;;;;;0.75;0.45;;;;;;;;;;4132105;28;20086;-42
2021/11/24 09:03:36;;;;;;;1.48;0.52;;;;;;;;;;4146392;28;20054;-41
2021/11/24 09:05:38;;;;;;;3.47;0.65;;;;;;;;;;4128852;28;20071;-43
2021/11/24 09:07:40;;;;;;;0.65;0.22;;;;;;;;;;4149022;28;20053;-41
2021/11/24 09:09:41;;;;;;;3.55;0.50;;;;;;;;;;4130362;28;20130;-42
2021/11/24 09:11:43;;;;;;;0.45;0.30;;;;;;;;;;4132389;28;20124;-43
2021/11/24 09:13:45;;;;;;;0.60;0.47;;;;;;;;;;4122579;28;20073;-46
2021/11/24 09:15:46;;;;;;;1.15;0.47;;;;;;;;;;4144664;28;20065;-40
2021/11/24 09:17:47;;;;;;;3.63;0.50;;;;;;;;;;4132296;28;20572;-43
2021/11/24 09:19:49;;;;;;;0.65;0.30;;;;;;;;;;4143862;28;20103;-41
2021/11/24 09:21:51;;;;;;;1.02;0.40;;;;;;;;;;4156282;28;20072;-40
2021/11/24 09:23:56;;;;;;;2.42;0.40;;;;;;;;;;4165156;28;20562;-40
2021/11/24 09:28:12;;;;;;;3.53;0.98;;;;;;;;;;4154750;28;20050;-44
2021/11/24 09:30:15;;;;;;;2.97;0.52;;;;;;;;;;4156250;28;20141;-39
2021/11/24 09:32:17;;;;;;;0.70;0.32;;;;;;;;;;4160506;28;20057;-40
2021/11/24 09:34:18;;;;;;;3.95;0.40;;;;;;;;;;4145587;28;20214;-40
2021/11/24 09:36:19;;;;;;;2.17;0.57;;;;;;;;;;4152473;28;20061;-38
2021/11/24 09:38:21;;;;;;;3.17;0.80;;;;;;;;;;4163463;28;20065;-41
2021/11/24 09:40:22;;;;;;;3.13;0.40;;;;;;;;;;4169099;28;20191;-42
2021/11/24 09:42:26;;;;;;;3.40;0.68;;;;;;;;;;4149701;28;20104;-39
2021/11/24 09:44:28;;;;;;;2.55;0.50;;;;;;;;;;4143542;28;20058;-40
2021/11/24 09:46:30;;;;;;;1.45;0.47;;;;;;;;;;4169636;28;20393;-42
2021/11/24 09:48:32;;;;;;;4.32;0.63;;;;;;;;;;4158903;28;20061;-40
2021/11/24 09:50:36;;;;;;;2.38;0.70;;;;;;;;;;4139415;28;20068;-39
2021/11/24 09:52:38;;;;;;;2.83;0.55;;;;;;;;;;4166787;28;20069;-40
2021/11/24 09:54:39;;;;;;;2.17;0.80;;;;;;;;;;4149509;28;20068;-40
2021/11/24 09:56:45;;;;;;;2.30;0.60;;;;;;;;;;4165743;28;20106;-39
2021/11/24 09:58:46;;;;;;;3.60;0.90;;;;;;;;;;4150988;28;20049;-41
2021/11/24 10:00:48;;;;;;;2.83;0.88;;;;;;;;;;4155562;28;20059;-43
2021/11/24 10:02:49;;;;;;;4.63;0.80;;;;;;;;;;4156840;28;20110;-41
2021/11/24 10:04:50;;;;;;;2.65;0.75;;;;;;;;;;4145527;28;20058;-46
2021/11/24 10:06:52;;;;;;;1.40;0.60;;;;;;;;;;4149196;28;20752;-40
2021/11/24 10:08:53;;;;;;;1.50;0.70;;;;;;;;;;4149716;28;20066;-41
2021/11/24 10:10:55;;;;;;;2.15;0.60;;;;;;;;;;4167495;28;20541;-41
2021/11/24 10:12:56;;;;;;;3.22;0.90;;;;;;;;;;4165756;28;20119;-40
2021/11/24 10:14:57;;;;;;;1.77;0.50;;;;;;;;;;4168683;28;20493;-39
2021/11/24 10:17:15;;;;;;;3.67;0.77;;;;;;;;;;4167606;28;20053;-40
2021/11/24 10:19:16;;;;;;;4.97;0.63;;;;;;;;;;4165824;28;20106;-41
2021/11/24 10:21:20;;;;;;;3.50;0.50;;;;;;;;;;4168424;28;20057;-41
2021/11/24 10:23:42;;;;;;;3.05;0.65;;;;;;;;;;4162297;28;20053;-41
2021/11/24 10:25:43;;;;;;;3.30;0.70;;;;;;;;;;4162684;28;20055;-41
2021/11/24 10:27:48;;;;;;;3.35;0.60;;;;;;;;;;4149376;28;20469;-40
2021/11/24 10:29:54;;;;;;;3.33;0.60;;;;;;;;;;4168845;28;20075;-42
2021/11/24 10:31:56;;;;;;;1.60;0.65;;;;;;;;;;4164973;28;20543;-41
2021/11/24 10:33:58;;;;;;;2.22;0.70;;;;;;;;;;4165676;28;20067;-42
2021/11/24 10:36:08;;;;;;;1.20;0.40;;;;;;;;;;4142193;28;20187;-41
2021/11/24 10:38:18;;;;;;;4.97;0.60;;;;;;;;;;4163978;28;20375;-43
2021/11/24 10:40:21;;;;;;;1.95;0.40;;;;;;;;;;4161703;28;20061;-45
2021/11/24 10:42:43;;;;;;;2.42;0.43;;;;;;;;;;4163591;28;20094;-42
2021/11/24 10:44:47;;;;;;;1.33;0.30;;;;;;;;;;4163022;28;20947;-40
2021/11/24 10:46:56;;;;;;;1.73;0.40;;;;;;;;;;4167173;28;20050;-41
2021/11/24 10:49:15;;;;;;;2.17;0.35;;;;;;;;;;4167330;28;20060;-41
2021/11/24 10:51:40;;;;;;;2.80;0.45;;;;;;;;;;4162053;28;20118;-39
2021/11/24 10:53:41;;;;;;;2.67;0.38;;;;;;;;;;4161873;28;20559;-43
2021/11/24 10:55:43;;;;;;;4.22;0.60;;;;;;;;;;4145467;28;20053;-40
2021/11/24 10:57:58;;;;;;;3.38;0.63;;;;;;;;;;4155973;28;20199;-41
2021/11/24 11:00:05;;;;;;;1.50;0.40;;;;;;;;;;4157864;28;20053;-42
2021/11/24 11:02:25;;;;;;;0.60;0.32;;;;;;;;;;4166374;28;20132;-40
2021/11/24 11:04:26;;;;;;;1.90;0.47;;;;;;;;;;4164154;28;20049;-40
2021/11/24 11:06:28;;;;;;;3.58;0.55;;;;;;;;;;4166530;28;20372;-42
2021/11/24 11:08:29;;;;;;;0.70;0.43;;;;;;;;;;4157244;28;20045;-39
2021/11/24 11:10:34;;;;;;;2.95;0.70;;;;;;;;;;4162565;28;20061;-45
2021/11/24 11:12:38;;;;;;;2.97;0.50;;;;;;;;;;4163762;28;20057;-40
2021/11/24 11:14:39;;;;;;;0.90;0.40;;;;;;;;;;4164876;28;20053;-39
2021/11/24 11:16:43;;;;;;;0.70;0.30;;;;;;;;;;4163061;28;20053;-38
2021/11/24 11:18:44;;;;;;;2.05;0.50;;;;;;;;;;4167364;28;20191;-40
2021/11/24 11:20:49;;;;;;;0.75;0.43;;;;;;;;;;4167961;28;20201;-39
2021/11/24 11:23:13;;;;;;;1.25;0.50;;;;;;;;;;4166389;28;20508;-41
2021/11/24 11:25:14;;;;;;;1.77;0.50;;;;;;;;;;4162797;28;20111;-41
2021/11/24 11:27:15;;;;;;;0.75;0.50;;;;;;;;;;4172627;28;20488;-42
2021/11/24 11:29:16;;;;;;;1.38;0.40;;;;;;;;;;4158931;28;20197;-41
2021/11/24 11:31:20;;;;;;;1.50;0.40;;;;;;;;;;4138885;28;20147;-43
2021/11/24 11:33:32;;;;;;;1.00;0.40;;;;;;;;;;4149379;28;20102;-46
2021/11/24 11:35:36;;;;;;;0.98;0.57;;;;;;;;;;4158992;28;20053;-42
2021/11/24 11:37:37;;;;;;;1.10;0.43;;;;;;;;;;4163057;28;20049;-43
2021/11/24 11:39:38;;;;;;;2.20;0.40;;;;;;;;;;4155928;28;20061;-41
2021/11/24 11:41:42;;;;;;;0.90;0.50;;;;;;;;;;4163187;28;20639;-41
2021/11/24 11:43:48;;;;;;;0.47;0.30;;;;;;;;;;4154134;28;20126;-43
2021/11/24 11:45:51;;;;;;;0.80;0.20;;;;;;;;;;4167131;28;20066;-42
2021/11/24 11:47:54;;;;;;;0.73;0.40;;;;;;;;;;4161526;28;20317;-40
2021/11/24 11:49:55;;;;;;;0.68;0.28;;;;;;;;;;4169114;28;21297;-42
2021/11/24 11:52:08;;;;;;;1.95;0.50;;;;;;;;;;4163162;28;20621;-42
2021/11/24 11:54:29;;;;;;;0.60;0.30;;;;;;;;;;4157292;28;20057;-40
2021/11/24 11:56:35;;;;;;;1.17;0.40;;;;;;;;;;4164492;28;20053;-42
2021/11/24 11:58:48;;;;;;;0.90;0.40;;;;;;;;;;4165726;28;20048;-43
2021/11/24 12:01:13;;;;;;;0.70;0.40;;;;;;;;;;4155724;28;20060;-42
2021/11/24 12:03:14;;;;;;;0.90;0.63;;;;;;;;;;4151016;28;20076;-42
2021/11/24 12:05:15;;;;;;;0.80;0.40;;;;;;;;;;4141010;28;20111;-43
2021/11/24 12:07:22;;;;;;;0.77;0.40;;;;;;;;;;4159810;28;20564;-40
2021/11/24 12:09:28;;;;;;;1.33;0.40;;;;;;;;;;4161539;28;20103;-40
2021/11/24 12:14:39;;;;;;;1.15;0.50;;;;;;;;;;4165018;28;20757;-44
2021/11/24 12:16:41;;;;;;;0.43;0.30;;;;;;;;;;4161819;28;20060;-43
2021/11/24 12:19:14;;;;;;;0.98;0.50;;;;;;;;;;4135787;28;20127;-41
2021/11/24 12:21:21;;;;;;;1.63;0.40;;;;;;;;;;4157014;28;20111;-39